모두
Ceres Airport YCES 기상
There is no TAF data available at YCES. Showing TAF data for YMAV (14 mi 동북).
AVV 터미널 지역 예측(YCES에 대한 데이터 없음)
| Here is the undecoded forecast: 2026/05/03 17:02 YMAV 031702Z 0318/0418 36010KT CAVOK FM040000 35015G25KT CAVOK FM040400 33018G28KT 9999 -SHRA BKN035 FM040900 31018G28KT 9999 -SHRA BKN030 FM041400 28015G25KT 9999 -SHRA SCT020 BKN030 RMK FM031800 MOD TURB BLW 5000FT TL041400 T 12 12 17 19 Q 1010 1010 1010 1007 |
There is no METAR data available at YCES. Showing METAR data for YMAV (14 mi 동북).
최근 AVV METAR 이력(YCES에 대한 데이터 없음)
| Date | Time (AEST) | Flight Rules | Wind Dir. | Speed | Type | Height AGL (ft) | Visibility | Temp (°C) | Temp (°F) | Dew Point (°C) | Dew Point (°F) | Rel. Humid. | Pressure | Density Altitude | Remarks |
|---|---|---|---|---|---|---|---|---|---|---|---|---|---|---|---|
| 04-5월 | 03:00 | VFR | 10° | 9 kt | 10000 meters | 11° | 51° | 7° | 44° | 76% | 1011 mb | -380 ft | |||
| 04-5월 | 02:30 | VFR | 10° | 10 kt | 10000 meters | 12° | 53° | 8° | 46° | 76% | 1011 mb | -260 ft | |||
| 04-5월 | 02:00 | VFR | 10° | 9 kt | 10000 meters | 11° | 51° | 8° | 46° | 82% | 1011 mb | -380 ft | |||
| 04-5월 | 01:30 | VFR | 10° | 9 kt | 10000 meters | 12° | 53° | 8° | 46° | 76% | 1011 mb | -260 ft | |||
| 04-5월 | 01:00 | VFR | 360° | 9 kt | 10000 meters | 12° | 53° | 8° | 46° | 76% | 1011 mb | -260 ft | |||
| 04-5월 | 00:30 | VFR | 360° | 11 kt | 10000 meters | 12° | 53° | 9° | 48° | 82% | 1011 mb | -260 ft | |||
| 04-5월 | 00:00 | VFR | 360° | 10 kt | 10000 meters | 12° | 53° | 9° | 48° | 82% | 1011 mb | -260 ft | |||
| 03-5월 | 23:30 | VFR | 10° | 11 kt | 10000 meters | 13° | 55° | 9° | 48° | 77% | 1011 mb | -140 ft | |||
| 03-5월 | 23:00 | VFR | 10° | 10 kt | 10000 meters | 13° | 55° | 9° | 48° | 77% | 1011 mb | -140 ft | |||
| 03-5월 | 22:00 | VFR | 10° | 9 kt | 10000 meters | 13° | 55° | 10° | 50° | 82% | 1012 mb | -169 ft | |||
| 03-5월 | 21:30 | VFR | 20° | 9 kt | 10000 meters | 14° | 57° | 10° | 50° | 77% | 1012 mb | -49 ft | |||
| 03-5월 | 21:00 | VFR | 10° | 10 kt | 10000 meters | 14° | 57° | 10° | 50° | 77% | 1012 mb | -49 ft | |||
| 03-5월 | 20:30 | VFR | 10° | 9 kt | 10000 meters | 14° | 57° | 9° | 48° | 72% | 1012 mb | -49 ft | |||
| 03-5월 | 20:00 | VFR | 360° | 9 kt | 10000 meters | 14° | 57° | 9° | 48° | 72% | 1011 mb | -20 ft | |||
| 03-5월 | 19:30 | VFR | 10° | 10 kt | 10000 meters | 15° | 59° | 9° | 48° | 67% | 1011 mb | 100 ft | |||
| 03-5월 | 19:00 | VFR | 10° | 8 kt | 10000 meters | 15° | 59° | 9° | 48° | 67% | 1011 mb | 100 ft | |||
| 03-5월 | 18:30 | VFR | 360° | 9 kt | 10000 meters | 15° | 59° | 9° | 48° | 67% | 1010 mb | 130 ft | |||
| 03-5월 | 18:00 | VFR | 10° | 8 kt | 10000 meters | 16° | 60° | 9° | 48° | 63% | 1010 mb | 250 ft | |||
| 03-5월 | 17:30 | VFR | 360° | 10 kt | 10000 meters | 17° | 62° | 8° | 46° | 55% | 1010 mb | 370 ft | |||
| 03-5월 | 17:00 | VFR | 330° | 10 kt | 10000 meters | 18° | 64° | 8° | 46° | 52% | 1010 mb | 490 ft | |||
| 03-5월 | 16:30 | VFR | 310° | 10 kt | 10000 meters | 19° | 66° | 8° | 46° | 49% | 1009 mb | 639 ft | |||
| 03-5월 | 16:00 | VFR | 310° | 15 kt | Broken |
9,200 |
10000 meters | 19° | 66° | 8° | 46° | 49% | 1010 mb | 610 ft | |
| 03-5월 | 15:30 | VFR | 310° | 12 kt | Scattered |
9,400 |
10000 meters | 19° | 66° | 7° | 44° | 46% | 1010 mb | 610 ft | |
| 03-5월 | 15:00 | VFR | 320° | 16 kt | 10000 meters | 21° | 69° | 6° | 42° | 38% | 1010 mb | 850 ft |
로그인
| 귀하의 브라우저는 지원되지 않습니다.. 브라우저를 업그레이드하세요 |
